Time;durP1;ratioP1;P1;durP2;ratioP2;P2;SDS_P1;SDS_P2;PMS_P1;PMS_P2;Temp;Humidity;BMP_temperature;BMP_pressure;BME280_temperature;BME280_humidity;BME280_pressure;Samples;Min_cycle;Max_cycle;Signal;HPM_P1;HPM_P2
2023/06/04 00:05:25;;;;;;;19.60;8.85;;;;;;;4.66;52.12;100367.75;1738721;82;21051;-61
2023/06/04 00:07:54;;;;;;;21.15;9.90;;;;;;;4.59;52.46;100368.69;1738182;82;21140;-61
2023/06/04 00:10:27;;;;;;;38.53;15.18;;;;;;;4.60;52.42;100370.42;1737639;82;21074;-61
2023/06/04 00:13:00;;;;;;;33.92;16.82;;;;;;;4.61;52.72;100360.92;1737337;82;21086;-61
2023/06/04 00:19:14;;;;;;;21.30;11.30;;;;;;;4.64;53.07;100364.31;1738415;82;21621;-61
2023/06/04 00:25:12;;;;;;;27.93;11.70;;;;;;;4.65;53.05;100363.46;1738334;82;21062;-61
2023/06/04 00:37:15;;;;;;;28.25;12.25;;;;;;;4.55;53.72;100354.09;1672204;85;21046;-61
2023/06/04 00:43:27;;;;;;;25.82;11.95;;;;;;;4.51;54.00;100353.73;1716472;83;21069;-61
2023/06/04 00:49:38;;;;;;;20.35;10.05;;;;;;;4.61;54.24;100356.59;1716825;83;21568;-62
2023/06/04 00:55:53;;;;;;;13.45;6.83;;;;;;;4.63;54.11;100351.42;1718487;83;21079;-61
2023/06/04 01:05:12;;;;;;;20.88;8.70;;;;;;;4.80;54.66;100354.63;1729356;78;21128;-59
2023/06/04 01:07:46;;;;;;;10.75;6.50;;;;;;;4.83;54.48;100356.33;1710788;82;21125;-61
2023/06/04 01:10:14;;;;;;;19.07;8.48;;;;;;;4.85;54.76;100354.58;1692825;83;21105;-62
2023/06/04 01:12:42;;;;;;;21.23;10.32;;;;;;;4.86;54.67;100348.52;1731985;81;21845;-64
2023/06/04 01:15:11;;;;;;;17.70;8.98;;;;;;;4.78;54.61;100352.49;1737481;81;21081;-64
2023/06/04 01:17:46;;;;;;;19.35;8.55;;;;;;;4.76;55.11;100344.33;1731701;80;21550;-64
2023/06/04 01:20:23;;;;;;;17.20;7.80;;;;;;;4.74;54.97;100343.52;1686030;82;21121;-60
2023/06/04 01:23:01;;;;;;;14.95;7.78;;;;;;;4.71;55.04;100341.39;1740330;80;21102;-64
2023/06/04 01:25:41;;;;;;;16.57;8.08;;;;;;;4.70;54.96;100340.98;1740274;80;21076;-62
2023/06/04 01:28:14;;;;;;;17.77;8.33;;;;;;;4.68;54.84;100350.92;1715889;81;21162;-60
2023/06/04 01:30:50;;;;;;;12.53;7.40;;;;;;;4.62;54.99;100342.81;1740721;80;21057;-61
2023/06/04 01:33:16;;;;;;;15.05;7.72;;;;;;;4.60;55.09;100344.55;1736788;81;21109;-60
2023/06/04 01:35:46;;;;;;;16.40;8.75;;;;;;;4.57;55.03;100347.18;1718196;80;21628;-61
2023/06/04 01:38:14;;;;;;;19.70;9.18;;;;;;;4.50;55.10;100348.12;1689233;82;21614;-61
2023/06/04 01:40:43;;;;;;;16.62;8.68;;;;;;;4.40;55.06;100341.37;1702135;81;21100;-62
2023/06/04 01:43:13;;;;;;;16.07;8.15;;;;;;;4.35;55.45;100343.15;1738294;81;21083;-62
2023/06/04 01:45:42;;;;;;;14.43;7.90;;;;;;;4.33;55.64;100337.98;1739168;80;21073;-59
2023/06/04 01:48:09;;;;;;;13.20;7.65;;;;;;;4.31;55.67;100336.28;1708289;82;21073;-61
2023/06/04 01:50:42;;;;;;;16.57;8.38;;;;;;;4.25;55.64;100340.64;1712554;82;21114;-59
2023/06/04 01:53:12;;;;;;;14.80;7.78;;;;;;;4.23;55.76;100340.27;1706943;82;21064;-60
2023/06/04 01:55:44;;;;;;;13.53;6.90;;;;;;;4.22;55.82;100338.10;1705499;82;21069;-61
2023/06/04 01:58:13;;;;;;;17.90;7.80;;;;;;;4.18;55.87;100339.02;1742857;80;21160;-60
2023/06/04 02:00:39;;;;;;;13.40;6.95;;;;;;;4.20;55.78;100335.11;1741968;80;21045;-65
2023/06/04 02:03:15;;;;;;;13.32;6.28;;;;;;;4.21;56.04;100338.98;1593725;82;21160;-62
2023/06/04 02:05:44;;;;;;;10.05;5.53;;;;;;;4.24;55.97;100331.19;1643768;86;21134;-62
2023/06/04 02:08:11;;;;;;;9.85;5.25;;;;;;;4.28;56.17;100336.33;1643883;86;21046;-62
2023/06/04 02:10:37;;;;;;;12.60;6.33;;;;;;;4.31;56.19;100328.09;1645403;86;21051;-62
2023/06/04 02:13:04;;;;;;;8.80;4.80;;;;;;;4.34;56.34;100333.66;1641504;85;21604;-62
2023/06/04 02:15:32;;;;;;;7.55;4.00;;;;;;;4.38;56.22;100331.47;1640115;86;21017;-62
2023/06/04 02:17:59;;;;;;;;;;;;;;;4.41;56.23;100332.73;1640104;86;21744;-62
2023/06/04 02:20:27;;;;;;;12.23;6.87;;;;;;;4.42;56.55;100334.42;1635936;86;20496;-62
2023/06/04 02:22:54;;;;;;;;;;;;;;;4.43;56.25;100333.57;1638623;86;21042;-62
2023/06/04 02:25:20;;;;;;;10.75;4.75;;;;;;;4.42;56.53;100335.27;1637637;86;20189;-62
2023/06/04 02:27:47;;;;;;;9.23;4.92;;;;;;;4.44;56.40;100330.09;1635832;86;21119;-61
2023/06/04 02:30:15;;;;;;;10.13;4.95;;;;;;;4.45;56.45;100336.56;1640463;86;21011;-62
2023/06/04 02:32:41;;;;;;;11.35;4.80;;;;;;;4.44;56.35;100336.56;1638945;86;21124;-61
2023/06/04 02:35:13;;;;;;;11.20;4.72;;;;;;;4.42;56.41;100334.42;1635250;86;21508;-61
2023/06/04 02:37:37;;;;;;;10.43;4.75;;;;;;;4.44;56.73;100338.70;1643252;86;21584;-61
2023/06/04 02:40:06;;;;;;;9.20;5.47;;;;;;;4.46;56.67;100336.11;1642792;86;21139;-61
2023/06/04 02:42:32;;;;;;;6.03;3.25;;;;;;;4.47;56.67;100331.34;1634190;86;21586;-61
2023/06/04 02:45:00;;;;;;;5.15;3.12;;;;;;;4.48;56.65;100336.92;1636197;86;21000;-61
2023/06/04 02:47:27;;;;;;;10.98;5.62;;;;;;;4.48;56.75;100336.92;1637969;86;21610;-61
2023/06/04 02:49:56;;;;;;;6.78;4.80;;;;;;;4.51;56.80;100338.22;1633739;86;21128;-59
2023/06/04 02:52:25;;;;;;;7.33;4.80;;;;;;;4.56;56.85;100337.69;1621706;86;21096;-61
2023/06/04 02:54:52;;;;;;;8.28;4.37;;;;;;;4.60;56.76;100348.87;1636703;86;21125;-61
2023/06/04 02:57:22;;;;;;;7.55;4.10;;;;;;;4.64;56.85;100348.80;1642512;85;21100;-61
2023/06/04 02:59:48;;;;;;;7.97;3.85;;;;;;;4.69;57.00;100347.01;1643104;86;21065;-61
2023/06/04 03:02:17;;;;;;;5.25;3.00;;;;;;;4.80;57.22;100346.02;1633967;86;21155;-61
2023/06/04 03:04:50;;;;;;;12.03;5.28;;;;;;;4.92;57.32;100354.89;1645123;86;21097;-61
2023/06/04 03:07:13;;;;;;;11.90;6.10;;;;;;;5.04;57.26;100356.03;1638291;86;21137;-61
2023/06/04 03:09:49;;;;;;;12.30;5.58;;;;;;;5.10;57.14;100350.77;1637141;86;21078;-61
2023/06/04 03:12:12;;;;;;;8.00;4.42;;;;;;;5.16;57.07;100353.25;1637011;86;21130;-61
2023/06/04 03:14:40;;;;;;;8.68;4.90;;;;;;;5.21;57.11;100347.14;1599710;86;21136;-61
2023/06/04 03:17:12;;;;;;;51.90;8.43;;;;;;;5.32;57.41;100350.41;1636074;86;21113;-61
2023/06/04 03:19:41;;;;;;;12.37;7.22;;;;;;;5.41;57.36;100346.41;1639813;86;21104;-61
2023/06/04 03:22:15;;;;;;;14.95;6.72;;;;;;;5.43;57.22;100351.09;1638746;86;21087;-61
2023/06/04 03:24:41;;;;;;;11.33;6.65;;;;;;;5.38;57.23;100351.64;1608401;88;21064;-61
2023/06/04 03:27:11;;;;;;;19.40;6.80;;;;;;;5.38;57.41;100346.45;1628825;86;21039;-61
2023/06/04 03:29:38;;;;;;;17.55;7.08;;;;;;;5.40;57.54;100344.67;1637339;86;21097;-61
2023/06/04 03:32:06;;;;;;;10.43;6.45;;;;;;;5.40;57.62;100343.38;1637463;86;21088;-61
2023/06/04 03:34:32;;;;;;;9.93;6.78;;;;;;;5.43;57.65;100345.92;1636428;86;21091;-61
2023/06/04 03:36:59;;;;;;;15.72;6.58;;;;;;;5.46;57.86;100345.90;1639556;86;21064;-61
2023/06/04 03:39:27;;;;;;;18.05;5.67;;;;;;;5.48;57.93;100336.34;1616752;86;21038;-61
2023/06/04 03:41:54;;;;;;;14.58;6.10;;;;;;;5.51;58.00;100338.87;1639914;86;21032;-61
2023/06/04 03:44:23;;;;;;;10.58;4.72;;;;;;;5.56;58.04;100342.25;1639404;86;20989;-61
2023/06/04 03:46:51;;;;;;;11.80;4.67;;;;;;;5.66;58.27;100344.67;1636948;86;21048;-61
2023/06/04 03:49:19;;;;;;;9.95;5.40;;;;;;;5.77;58.43;100337.58;1635039;86;21614;-60
2023/06/04 03:51:47;;;;;;;8.85;4.83;;;;;;;5.91;58.84;100339.92;1615492;86;21441;-61
2023/06/04 03:54:19;;;;;;;9.33;4.28;;;;;;;6.04;58.76;100340.99;1639721;86;21119;-62
2023/06/04 03:56:47;;;;;;;8.73;4.67;;;;;;;6.20;58.86;100340.27;1635046;86;21637;-61
2023/06/04 03:59:14;;;;;;;5.55;3.72;;;;;;;6.39;58.90;100343.36;1636150;86;21143;-61
2023/06/04 04:01:45;;;;;;;5.35;3.47;;;;;;;6.58;59.01;100337.77;1636781;86;21099;-61
2023/06/04 04:04:12;;;;;;;4.60;2.92;;;;;;;6.78;59.13;100342.12;1641049;86;21551;-61
2023/06/04 04:06:42;;;;;;;6.00;3.10;;;;;;;7.02;59.05;100339.40;1638142;85;21035;-61
2023/06/04 04:09:08;;;;;;;4.22;2.85;;;;;;;7.24;59.07;100329.38;1642377;86;21022;-61
2023/06/04 04:11:42;;;;;;;6.30;2.85;;;;;;;7.49;59.13;100328.78;1590239;87;21168;-61
2023/06/04 04:14:02;;;;;;;6.35;2.50;;;;;;;7.73;59.11;100322.97;1611219;87;21123;-61
2023/06/04 04:16:29;;;;;;;6.80;2.85;;;;;;;7.98;59.13;100318.39;1642213;85;21091;-61
2023/06/04 04:18:58;;;;;;;4.17;2.58;;;;;;;8.23;59.26;100320.75;1638193;86;21060;-61
2023/06/04 04:21:24;;;;;;;5.60;2.75;;;;;;;8.45;59.12;100311.05;1613922;86;21080;-61
2023/06/04 04:23:52;;;;;;;7.42;2.70;;;;;;;8.69;59.12;100311.63;1594406;87;21435;-61
2023/06/04 04:26:19;;;;;;;3.67;2.35;;;;;;;8.93;59.13;100316.97;1636617;86;21161;-61
2023/06/04 04:28:47;;;;;;;4.10;2.20;;;;;;;9.14;59.02;100310.25;1640182;85;21764;-61
2023/06/04 04:31:18;;;;;;;7.10;2.25;;;;;;;9.37;58.85;100312.11;1638154;85;21061;-62
2023/06/04 04:33:45;;;;;;;2.87;2.00;;;;;;;9.59;59.02;100309.64;1642850;86;21048;-62
2023/06/04 04:36:13;;;;;;;6.10;1.82;;;;;;;9.81;58.90;100308.00;1582767;86;21220;-62
2023/06/04 04:38:42;;;;;;;2.47;1.62;;;;;;;10.04;58.76;100315.02;1635457;86;21610;-61
2023/06/04 04:41:08;;;;;;;5.65;2.00;;;;;;;10.26;58.69;100314.25;1638192;85;21061;-62
2023/06/04 04:43:39;;;;;;;6.37;2.45;;;;;;;10.45;58.75;100315.31;1642243;86;21551;-62
2023/06/04 04:46:07;;;;;;;3.62;2.12;;;;;;;10.71;58.68;100321.30;1610947;87;21089;-62
2023/06/04 04:48:34;;;;;;;4.27;1.83;;;;;;;10.94;58.58;100323.87;1641996;86;21084;-61
2023/06/04 04:51:06;;;;;;;3.00;1.50;;;;;;;11.16;58.51;100315.19;1641798;86;21546;-61
2023/06/04 04:53:34;;;;;;;3.35;1.22;;;;;;;11.37;58.24;100316.94;1641734;86;21087;-61
2023/06/04 04:56:00;;;;;;;1.85;1.32;;;;;;;11.57;58.19;100310.03;1640129;86;21079;-61
2023/06/04 04:58:28;;;;;;;2.60;1.45;;;;;;;11.76;58.00;100302.23;1642574;87;21088;-61
2023/06/04 05:00:54;;;;;;;2.37;1.20;;;;;;;11.97;57.86;100310.50;1640418;86;21065;-61
2023/06/04 05:03:24;;;;;;;2.77;1.40;;;;;;;12.16;57.74;100303.16;1646323;86;21108;-61
2023/06/04 05:05:53;;;;;;;4.35;1.25;;;;;;;12.34;57.59;100300.17;1641241;86;21127;-61
2023/06/04 05:08:19;;;;;;;3.87;1.40;;;;;;;12.42;57.38;100281.03;1641352;85;21437;-62
2023/06/04 05:10:48;;;;;;;1.95;1.37;;;;;;;12.68;56.96;100297.68;1634847;86;21077;-61
2023/06/04 05:13:15;;;;;;;2.08;1.30;;;;;;;12.84;56.71;100300.91;1636160;86;21665;-62
2023/06/04 05:15:42;;;;;;;3.27;1.12;;;;;;;12.94;56.37;100304.80;1638721;87;21591;-61
2023/06/04 05:18:08;;;;;;;6.28;1.22;;;;;;;13.07;56.36;100305.89;1638560;86;21064;-61
2023/06/04 05:20:37;;;;;;;1.87;1.23;;;;;;;13.19;55.85;100306.62;1641061;86;20998;-61
2023/06/04 05:23:09;;;;;;;2.67;1.20;;;;;;;13.33;55.92;100310.35;1607948;86;21164;-62
2023/06/04 05:25:35;;;;;;;5.33;0.90;;;;;;;13.45;55.66;100307.61;1645160;86;21032;-61
2023/06/04 05:28:03;;;;;;;3.17;0.80;;;;;;;13.61;55.58;100304.14;1644476;86;21084;-62
2023/06/04 05:30:29;;;;;;;2.05;1.02;;;;;;;13.74;55.47;100308.75;1644077;86;21141;-62
2023/06/04 05:32:55;;;;;;;7.10;2.02;;;;;;;13.90;55.46;100307.05;1644152;86;21073;-62
2023/06/04 05:35:25;;;;;;;3.15;1.57;;;;;;;14.05;54.98;100308.86;1631647;86;21079;-62
2023/06/04 05:37:54;;;;;;;5.47;1.02;;;;;;;14.22;54.90;100305.81;1640421;86;21118;-62
2023/06/04 05:40:25;;;;;;;3.87;1.10;;;;;;;14.39;54.95;100303.59;1639716;86;21589;-62
2023/06/04 05:42:50;;;;;;;2.47;1.00;;;;;;;14.57;54.55;100309.69;1639320;87;21586;-62
2023/06/04 05:45:18;;;;;;;4.30;1.00;;;;;;;14.74;54.49;100308.30;1635221;86;21096;-62
2023/06/04 05:47:44;;;;;;;1.75;1.05;;;;;;;14.90;54.02;100309.14;1645737;85;21073;-62
2023/06/04 05:50:11;;;;;;;1.87;0.95;;;;;;;15.00;53.88;100308.98;1644281;86;21646;-62
2023/06/04 05:52:38;;;;;;;1.85;1.00;;;;;;;15.08;53.74;100299.83;1643624;85;21120;-62
2023/06/04 05:55:07;;;;;;;2.65;0.90;;;;;;;15.24;53.43;100307.70;1636071;86;21057;-62
2023/06/04 05:57:35;;;;;;;4.87;1.17;;;;;;;15.33;53.16;100305.37;1634963;86;21570;-62
2023/06/04 06:00:08;;;;;;;2.77;1.22;;;;;;;15.50;53.03;100308.83;1638199;86;21204;-62
2023/06/04 06:02:34;;;;;;;1.85;1.05;;;;;;;15.58;52.80;100298.70;1648673;85;21631;-61
2023/06/04 06:05:00;;;;;;;2.55;1.00;;;;;;;15.71;52.70;100301.02;1636716;86;21094;-62
2023/06/04 06:07:31;;;;;;;2.20;1.00;;;;;;;15.93;52.42;100308.94;1640548;86;22660;-62
2023/06/04 06:10:02;;;;;;;2.35;1.00;;;;;;;16.09;52.08;100304.44;1640122;85;21642;-62
2023/06/04 06:12:29;;;;;;;2.27;1.12;;;;;;;16.19;51.68;100305.58;1636827;86;21016;-62
2023/06/04 06:14:56;;;;;;;4.25;1.30;;;;;;;16.20;50.89;100303.31;1636952;86;21363;-62
2023/06/04 06:17:25;;;;;;;4.47;1.25;;;;;;;16.22;51.31;100310.66;1607609;85;21100;-62
2023/06/04 06:19:57;;;;;;;1.50;0.90;;;;;;;16.45;51.34;100307.08;1638472;86;21104;-63
2023/06/04 06:22:25;;;;;;;3.05;1.65;;;;;;;16.65;50.97;100309.30;1635768;86;21063;-62
2023/06/04 06:24:56;;;;;;;2.95;1.10;;;;;;;16.85;50.51;100308.05;1641471;86;21068;-62
2023/06/04 06:27:20;;;;;;;4.78;1.00;;;;;;;16.99;50.53;100313.77;1640355;86;21076;-63
2023/06/04 06:29:46;;;;;;;2.35;1.20;;;;;;;17.16;49.93;100310.88;1640941;86;21130;-62
2023/06/04 06:32:14;;;;;;;3.00;1.17;;;;;;;17.32;49.82;100307.24;1611577;86;21229;-63
2023/06/04 06:34:41;;;;;;;1.52;0.90;;;;;;;17.52;49.62;100310.72;1643479;85;21112;-62
2023/06/04 06:37:09;;;;;;;2.30;0.90;;;;;;;17.76;49.49;100311.36;1646166;86;21272;-63
2023/06/04 06:39:36;;;;;;;3.67;0.85;;;;;;;17.99;49.13;100307.17;1639119;86;21016;-62
2023/06/04 06:42:04;;;;;;;1.92;0.90;;;;;;;18.21;48.76;100306.53;1643646;86;21068;-62
2023/06/04 06:44:31;;;;;;;2.65;0.80;;;;;;;18.51;48.74;100307.47;1616316;87;21635;-63
2023/06/04 06:46:57;;;;;;;3.50;0.90;;;;;;;18.82;48.12;100310.14;1644963;86;21055;-62
2023/06/04 06:49:25;;;;;;;2.47;0.78;;;;;;;19.19;47.90;100304.80;1616190;86;21099;-63
2023/06/04 06:51:52;;;;;;;3.37;0.90;;;;;;;19.89;48.73;100302.16;1644126;85;21128;-64
2023/06/04 06:54:21;;;;;;;1.22;0.62;;;;;;;20.98;48.38;100306.83;1640992;86;21021;-64
2023/06/04 06:56:50;;;;;;;1.12;0.72;;;;;;;21.85;47.42;100295.22;1642478;86;21178;-63
2023/06/04 06:59:16;;;;;;;1.37;0.60;;;;;;;22.32;46.62;100298.26;1642347;86;20989;-64
2023/06/04 07:01:47;;;;;;;1.75;0.88;;;;;;;22.75;46.22;100297.15;1647384;85;20993;-63
2023/06/04 07:04:10;;;;;;;1.05;0.60;;;;;;;23.37;45.89;100295.97;1647052;85;21113;-63
2023/06/04 07:06:37;;;;;;;4.00;1.00;;;;;;;24.12;45.19;100290.80;1634087;86;21286;-63
2023/06/04 07:09:05;;;;;;;3.35;0.60;;;;;;;24.68;44.92;100295.20;1640818;86;20978;-63
2023/06/04 07:11:32;;;;;;;1.12;0.72;;;;;;;25.44;44.84;100289.45;1595464;87;21058;-64
2023/06/04 07:13:58;;;;;;;5.42;0.93;;;;;;;26.42;44.25;100289.23;1637119;86;21064;-64
2023/06/04 07:16:25;;;;;;;;;;;;;;;27.33;43.23;100275.06;1641684;86;21505;-64
2023/06/04 07:18:51;;;;;;;3.17;0.90;;;;;;;28.21;41.47;100280.98;1638995;86;20197;-64
2023/06/04 07:21:19;;;;;;;2.65;0.70;;;;;;;28.82;42.00;100283.05;1637421;86;21032;-64
2023/06/04 07:23:49;;;;;;;3.42;0.90;;;;;;;29.29;40.86;100288.81;1637990;86;21646;-61
2023/06/04 07:26:15;;;;;;;2.47;0.60;;;;;;;29.69;40.63;100290.84;1638922;86;21096;-61
2023/06/04 07:28:41;;;;;;;1.30;0.80;;;;;;;30.14;39.73;100290.36;1638921;86;21064;-62
2023/06/04 07:31:10;;;;;;;1.12;0.72;;;;;;;30.63;38.96;100292.48;1638704;86;21027;-61
2023/06/04 07:33:43;;;;;;;2.80;0.88;;;;;;;31.28;38.52;100294.22;1637036;86;22185;-61
2023/06/04 07:36:07;;;;;;;2.75;1.00;;;;;;;32.20;37.89;100294.63;1638222;86;21086;-62
2023/06/04 07:38:36;;;;;;;3.50;1.02;;;;;;;33.34;37.34;100293.15;1648221;86;20959;-61
2023/06/04 07:41:02;;;;;;;6.03;0.90;;;;;;;34.29;36.26;100288.27;1644017;85;21727;-62
2023/06/04 07:43:33;;;;;;;;;;;;;;;35.26;35.51;100289.53;1645354;86;20945;-61
2023/06/04 07:46:05;;;;;;;1.70;0.80;;;;;;;35.73;32.94;100284.03;1620997;86;20169;-61
2023/06/04 07:48:31;;;;;;;1.80;0.53;;;;;;;36.28;33.69;100288.16;1643806;86;21040;-61
2023/06/04 07:51:00;;;;;;;3.62;0.80;;;;;;;37.22;32.90;100282.28;1644909;86;21040;-61
2023/06/04 07:53:28;;;;;;;0.62;0.50;;;;;;;37.83;30.39;100282.94;1641336;85;21532;-61
2023/06/04 07:55:57;;;;;;;5.70;0.98;;;;;;;37.83;30.39;100282.94;1618433;86;21085;-61
2023/06/04 07:58:26;;;;;;;1.92;0.72;;;;;;;37.68;29.22;100275.80;1639645;85;21018;-61
2023/06/04 08:00:51;;;;;;;4.42;0.72;;;;;;;37.35;28.45;100273.08;1644818;86;21009;-61
2023/06/04 08:03:20;;;;;;;0.93;0.53;;;;;;;37.57;28.17;100272.82;1637227;86;21056;-61
2023/06/04 08:05:46;;;;;;;1.37;0.50;;;;;;;37.51;26.67;100275.14;1645081;85;21015;-61
2023/06/04 08:08:13;;;;;;;0.95;0.60;;;;;;;38.03;26.35;100275.22;1644172;86;21308;-61
2023/06/04 08:10:42;;;;;;;35.95;2.35;;;;;;;38.59;25.89;100275.55;1635362;86;21548;-61
2023/06/04 08:13:11;;;;;;;2.87;1.02;;;;;;;39.39;25.39;100274.55;1636998;86;21036;-61
2023/06/04 08:15:38;;;;;;;4.70;0.70;;;;;;;39.98;24.43;100270.50;1638094;86;21558;-61
2023/06/04 08:18:07;;;;;;;2.87;0.70;;;;;;;40.16;23.70;100275.63;1634278;86;21085;-61
2023/06/04 08:20:35;;;;;;;4.00;0.78;;;;;;;40.49;23.42;100273.86;1639138;86;21071;-61
2023/06/04 08:23:01;;;;;;;1.47;0.60;;;;;;;40.46;22.30;100266.98;1646450;85;21576;-61
2023/06/04 08:25:29;;;;;;;1.07;0.60;;;;;;;40.30;21.87;100265.70;1643768;86;21555;-61
2023/06/04 08:27:56;;;;;;;1.07;0.57;;;;;;;40.17;21.39;100265.55;1640891;86;21017;-61
2023/06/04 08:30:22;;;;;;;1.60;0.80;;;;;;;40.28;21.01;100267.34;1636763;86;22090;-60
2023/06/04 08:32:48;;;;;;;1.12;0.50;;;;;;;40.46;20.14;100271.64;1636544;86;21071;-61
2023/06/04 08:35:16;;;;;;;3.72;0.70;;;;;;;40.53;20.27;100269.55;1639048;86;21099;-61
2023/06/04 08:37:42;;;;;;;0.60;0.50;;;;;;;41.09;19.80;100272.88;1638065;86;21088;-61
2023/06/04 08:40:11;;;;;;;8.08;1.00;;;;;;;41.32;19.21;100266.20;1639107;86;21052;-61
2023/06/04 08:42:44;;;;;;;2.87;0.78;;;;;;;41.51;18.71;100273.48;1642183;86;21462;-61
2023/06/04 08:45:12;;;;;;;2.05;0.80;;;;;;;41.64;18.32;100273.55;1644248;86;21051;-61
2023/06/04 08:47:42;;;;;;;2.65;0.53;;;;;;;41.71;17.77;100271.96;1640952;86;21040;-61
2023/06/04 08:50:10;;;;;;;2.55;0.68;;;;;;;41.84;17.79;100281.05;1636701;86;21044;-61
2023/06/04 08:52:39;;;;;;;27.85;1.67;;;;;;;42.42;17.25;100279.16;1643291;86;21002;-61
2023/06/04 08:55:11;;;;;;;5.67;0.90;;;;;;;42.98;17.14;100283.12;1646542;84;21037;-60
2023/06/04 08:57:42;;;;;;;0.85;0.53;;;;;;;43.57;16.78;100282.58;1640062;86;21070;-60
2023/06/04 09:00:13;;;;;;;2.25;0.85;;;;;;;43.89;16.26;100280.01;1640980;86;21072;-60
2023/06/04 09:02:43;;;;;;;2.02;0.65;;;;;;;44.04;15.74;100275.87;1637097;86;21024;-60
2023/06/04 09:05:12;;;;;;;3.05;0.70;;;;;;;43.56;15.28;100275.45;1636976;86;21113;-60
2023/06/04 09:07:41;;;;;;;1.07;0.45;;;;;;;43.25;15.35;100277.39;1638421;86;21072;-60
2023/06/04 09:10:13;;;;;;;1.25;0.60;;;;;;;43.38;15.09;100281.48;1636800;86;22182;-61
2023/06/04 09:12:41;;;;;;;1.62;0.70;;;;;;;43.51;14.91;100275.42;1637722;86;22294;-60
2023/06/04 09:15:08;;;;;;;1.87;0.60;;;;;;;43.54;14.56;100274.86;1645988;86;21021;-60
2023/06/04 09:17:36;;;;;;;1.92;0.90;;;;;;;43.39;14.49;100270.23;1646752;85;21066;-60
2023/06/04 09:20:03;;;;;;;5.22;0.82;;;;;;;44.13;14.32;100276.92;1597038;88;21498;-60
2023/06/04 09:22:37;;;;;;;2.65;0.80;;;;;;;44.95;13.96;100272.88;1636492;86;21005;-60
2023/06/04 09:25:09;;;;;;;1.27;0.70;;;;;;;45.41;13.61;100276.07;1636591;86;21598;-60
2023/06/04 09:27:40;;;;;;;1.57;0.50;;;;;;;45.29;13.33;100271.48;1640252;86;20999;-61
2023/06/04 09:30:09;;;;;;;6.90;0.75;;;;;;;45.63;13.09;100263.72;1646506;86;21070;-61
2023/06/04 09:32:35;;;;;;;0.98;0.50;;;;;;;44.60;12.72;100264.57;1649491;86;21556;-60
2023/06/04 09:35:11;;;;;;;1.60;0.50;;;;;;;44.14;12.66;100268.92;1644234;85;21053;-59
2023/06/04 09:37:38;;;;;;;4.50;0.78;;;;;;;44.34;12.74;100263.04;1643881;86;21012;-60
2023/06/04 09:40:06;;;;;;;1.12;0.80;;;;;;;44.95;12.13;100261.30;1636818;86;21028;-60
2023/06/04 09:42:46;;;;;;;0.82;0.60;;;;;;;44.38;12.00;100257.28;1639658;86;21044;-60
2023/06/04 09:45:13;;;;;;;3.12;0.70;;;;;;;43.60;11.96;100257.28;1638396;86;21638;-60
2023/06/04 09:47:42;;;;;;;1.30;0.60;;;;;;;43.47;12.08;100254.55;1637590;86;21055;-61
2023/06/04 09:50:12;;;;;;;1.47;0.55;;;;;;;43.69;11.60;100263.02;1635395;86;21051;-62
2023/06/04 09:52:39;;;;;;;2.27;0.78;;;;;;;43.75;11.85;100257.25;1636949;86;21541;-60
2023/06/04 09:55:19;;;;;;;3.95;0.70;;;;;;;44.22;11.58;100249.06;1636359;86;21046;-60
2023/06/04 09:57:49;;;;;;;1.95;0.70;;;;;;;44.34;11.63;100257.53;1636468;86;21039;-60
2023/06/04 10:00:23;;;;;;;1.32;0.62;;;;;;;45.09;11.42;100249.87;1636318;86;21100;-60
2023/06/04 10:02:54;;;;;;;1.80;0.95;;;;;;;44.60;11.02;100261.81;1632093;86;21468;-60
2023/06/04 10:05:21;;;;;;;1.67;0.68;;;;;;;44.69;11.28;100264.78;1630692;86;21052;-62
2023/06/04 10:07:55;;;;;;;3.25;0.70;;;;;;;44.80;10.89;100260.05;1629740;86;21571;-61
2023/06/04 10:10:23;;;;;;;1.35;0.60;;;;;;;44.47;10.85;100261.07;1606445;88;21047;-61
2023/06/04 10:12:52;;;;;;;2.05;0.60;;;;;;;44.96;10.56;100256.07;1610890;87;21062;-61
2023/06/04 10:15:20;;;;;;;4.10;0.90;;;;;;;45.48;10.80;100257.23;1630327;86;21052;-61
2023/06/04 10:17:48;;;;;;;1.92;0.62;;;;;;;45.62;10.59;100253.81;1639813;86;21018;-61
2023/06/04 10:20:16;;;;;;;0.82;0.57;;;;;;;45.89;10.66;100257.36;1639279;86;21096;-61
2023/06/04 10:22:43;;;;;;;3.45;0.72;;;;;;;45.93;10.42;100257.87;1638800;86;21518;-61
2023/06/04 10:25:10;;;;;;;0.80;0.60;;;;;;;45.51;10.50;100258.02;1646519;85;21333;-61
2023/06/04 10:27:37;;;;;;;1.35;0.72;;;;;;;45.88;10.39;100262.06;1639947;86;21542;-61
2023/06/04 10:30:07;;;;;;;3.45;0.65;;;;;;;46.50;10.31;100258.49;1636785;85;21064;-61
2023/06/04 10:32:34;;;;;;;0.50;0.50;;;;;;;46.73;10.17;100261.77;1640563;86;21044;-61
2023/06/04 10:35:07;;;;;;;1.32;0.60;;;;;;;45.81;9.95;100253.87;1643987;86;21001;-62
2023/06/04 10:37:34;;;;;;;0.75;0.60;;;;;;;43.85;9.74;100250.87;1643653;86;21044;-61
2023/06/04 10:40:00;;;;;;;0.90;0.50;;;;;;;43.37;10.15;100260.05;1643716;85;21555;-61
2023/06/04 10:42:40;;;;;;;4.28;0.65;;;;;;;44.58;10.07;100256.33;1640988;85;21051;-61
2023/06/04 10:45:08;;;;;;;1.50;0.70;;;;;;;45.28;9.92;100256.08;1644115;85;21040;-61
2023/06/04 10:47:37;;;;;;;9.85;0.90;;;;;;;45.66;9.70;100263.16;1635436;86;21028;-61
2023/06/04 10:50:11;;;;;;;3.17;0.72;;;;;;;46.24;9.63;100261.59;1629521;86;21024;-61
2023/06/04 10:52:55;;;;;;;2.02;0.70;;;;;;;46.68;9.60;100267.37;1612508;86;22691;-61
2023/06/04 10:55:21;;;;;;;0.90;0.50;;;;;;;46.38;9.31;100259.77;1626300;86;21020;-61
2023/06/04 10:57:55;;;;;;;2.35;0.60;;;;;;;46.19;9.21;100256.17;1629463;86;21657;-61
2023/06/04 11:00:23;;;;;;;1.98;0.80;;;;;;;45.28;9.08;100251.94;1629080;86;21038;-61
2023/06/04 11:02:55;;;;;;;2.05;0.90;;;;;;;45.00;9.21;100246.66;1629062;86;21045;-61
2023/06/04 11:05:25;;;;;;;1.70;0.60;;;;;;;44.54;8.98;100256.08;1625285;86;21646;-61
2023/06/04 11:07:53;;;;;;;2.42;0.90;;;;;;;43.44;9.18;100252.88;1626521;86;21053;-61
2023/06/04 11:10:23;;;;;;;1.35;0.55;;;;;;;42.90;9.39;100260.59;1631475;86;21096;-61
2023/06/04 11:12:50;;;;;;;1.27;0.70;;;;;;;43.23;9.47;100255.67;1614575;87;21555;-61
2023/06/04 11:15:18;;;;;;;2.83;0.60;;;;;;;43.46;9.42;100256.19;1636548;86;22216;-64
2023/06/04 11:17:52;;;;;;;4.17;0.88;;;;;;;44.05;9.51;100249.98;1641054;86;21005;-63
2023/06/04 11:20:21;;;;;;;8.33;0.80;;;;;;;43.32;9.30;100251.25;1636518;86;21083;-66
2023/06/04 11:22:59;;;;;;;2.90;0.60;;;;;;;42.25;9.41;100240.94;1617925;87;21509;-64
2023/06/04 11:25:26;;;;;;;0.78;0.55;;;;;;;41.67;9.51;100244.78;1642347;86;21126;-64
2023/06/04 11:27:55;;;;;;;1.25;0.70;;;;;;;41.48;9.71;100250.72;1593899;86;21103;-64
2023/06/04 11:30:22;;;;;;;3.77;0.82;;;;;;;42.03;9.71;100246.63;1643006;86;21101;-64
2023/06/04 11:32:49;;;;;;;1.92;0.85;;;;;;;42.33;9.72;100247.86;1644268;86;21544;-64
2023/06/04 11:35:16;;;;;;;2.35;0.53;;;;;;;42.01;9.81;100240.60;1640759;85;21603;-64
2023/06/04 11:37:46;;;;;;;3.27;0.75;;;;;;;40.79;9.52;100247.92;1639067;87;21041;-63
2023/06/04 11:40:18;;;;;;;1.05;0.60;;;;;;;39.31;9.95;100246.28;1634776;86;21769;-63
2023/06/04 11:42:46;;;;;;;6.37;0.80;;;;;;;39.32;10.20;100249.30;1638817;86;21067;-63
2023/06/04 11:45:19;;;;;;;0.98;0.60;;;;;;;39.67;10.21;100248.73;1636738;86;21092;-63
2023/06/04 11:47:55;;;;;;;6.03;0.70;;;;;;;39.80;10.29;100250.59;1638899;86;21107;-63
2023/06/04 11:50:23;;;;;;;3.12;0.60;;;;;;;40.06;10.39;100250.91;1642236;86;20966;-65
2023/06/04 11:52:55;;;;;;;2.10;0.72;;;;;;;40.31;10.46;100252.34;1597526;88;21104;-63
2023/06/04 11:55:21;;;;;;;1.30;0.60;;;;;;;39.85;10.36;100248.98;1645257;86;22720;-63
2023/06/04 11:57:49;;;;;;;3.05;0.60;;;;;;;39.18;10.55;100247.95;1637735;86;21011;-63
2023/06/04 12:00:17;;;;;;;0.70;0.60;;;;;;;38.27;10.52;100245.19;1640811;86;21584;-63
2023/06/04 12:02:53;;;;;;;4.22;0.53;;;;;;;36.82;10.72;100248.03;1634562;86;21578;-63
2023/06/04 12:05:22;;;;;;;1.10;0.70;;;;;;;35.83;10.95;100244.96;1643088;86;21087;-63
2023/06/04 12:07:57;;;;;;;2.80;0.65;;;;;;;34.62;11.11;100242.55;1645063;85;21012;-63
2023/06/04 12:10:24;;;;;;;4.70;0.62;;;;;;;30.06;11.31;100240.98;1642718;86;21598;-60
2023/06/04 12:12:55;;;;;;;1.92;0.78;;;;;;;30.06;11.31;100240.98;1644683;85;21055;-62